createdAt,value
2022-11-08T00:00:43.009Z,64.23
2022-11-08T00:03:11.209Z,64.56
2022-11-08T00:05:57.460Z,64.41
2022-11-08T00:08:43.259Z,64.62
2022-11-08T00:11:29.268Z,64.29
2022-11-08T00:13:58.711Z,63.91
2022-11-08T00:16:27.242Z,64.32
2022-11-08T00:18:55.339Z,64.52
2022-11-08T00:21:23.423Z,64.56
2022-11-08T00:23:51.624Z,64.79
2022-11-08T00:26:19.714Z,63.88
2022-11-08T00:28:47.836Z,64.02
2022-11-08T00:31:17.239Z,64.01
2022-11-08T00:33:45.524Z,64.51
2022-11-08T00:36:13.580Z,64.74
2022-11-08T00:38:43.545Z,64.25
2022-11-08T00:41:12.135Z,65.13
2022-11-08T00:43:40.260Z,65.23
2022-11-08T00:46:08.331Z,64.77
2022-11-08T00:48:37.761Z,64.30
2022-11-08T00:51:09.130Z,65.06
2022-11-08T00:53:38.960Z,65.03
2022-11-08T00:56:09.492Z,64.92
2022-11-08T00:58:37.524Z,64.55
2022-11-08T01:01:12.320Z,64.60
2022-11-08T01:03:41.952Z,65.03
2022-11-08T01:06:12.443Z,64.99
2022-11-08T01:08:40.741Z,64.72
2022-11-08T01:11:12.290Z,64.59
2022-11-08T01:13:41.037Z,65.21
2022-11-08T01:16:11.162Z,65.51
2022-11-08T01:18:40.715Z,65.33
2022-11-08T01:21:09.118Z,65.33
2022-11-08T01:23:37.745Z,64.83
2022-11-08T01:26:08.925Z,64.96
2022-11-08T01:28:37.575Z,65.03
2022-11-08T01:31:07.859Z,65.37
2022-11-08T01:33:36.077Z,65.04
2022-11-08T01:36:08.131Z,65.60
2022-11-08T01:38:37.100Z,65.17
2022-11-08T01:41:06.020Z,65.59
2022-11-08T01:43:43.171Z,65.77
2022-11-08T01:46:43.175Z,65.55
2022-11-08T01:49:32.028Z,65.35
2022-11-08T01:52:20.304Z,64.72
2022-11-08T01:54:59.963Z,65.12
2022-11-08T01:57:36.051Z,65.51
2022-11-08T02:00:10.152Z,65.36
2022-11-08T02:02:41.767Z,64.90
2022-11-08T02:05:28.727Z,65.83
2022-11-08T02:08:03.013Z,65.58
2022-11-08T02:10:35.685Z,65.43
2022-11-08T02:13:05.883Z,65.58
2022-11-08T02:15:36.239Z,65.80
2022-11-08T02:18:05.183Z,65.80
2022-11-08T02:20:34.957Z,65.31
2022-11-08T02:23:14.778Z,65.50
2022-11-08T02:25:44.218Z,65.67
2022-11-08T02:28:12.266Z,65.30
2022-11-08T02:30:40.545Z,65.38
2022-11-08T02:33:17.341Z,65.86
2022-11-08T02:35:49.290Z,65.80
2022-11-08T02:38:18.384Z,65.33
2022-11-08T02:40:49.951Z,65.76
2022-11-08T02:43:18.260Z,65.81
2022-11-08T02:45:47.173Z,64.96
2022-11-08T02:48:17.612Z,65.47
2022-11-08T02:50:46.003Z,65.57
2022-11-08T02:53:14.474Z,64.92
2022-11-08T02:55:43.011Z,65.13
2022-11-08T02:58:13.367Z,65.09
2022-11-08T03:00:41.801Z,65.79
2022-11-08T03:03:09.931Z,64.92
2022-11-08T03:05:37.991Z,64.87
2022-11-08T03:08:06.370Z,65.24
2022-11-08T03:10:34.404Z,64.80
2022-11-08T03:13:05.114Z,65.07
2022-11-08T03:15:34.664Z,65.66
2022-11-08T03:18:03.093Z,64.99
2022-11-08T03:20:33.405Z,65.42
2022-11-08T03:23:04.494Z,65.63
2022-11-08T03:25:33.222Z,65.63
2022-11-08T03:28:06.324Z,65.01
2022-11-08T03:30:40.064Z,65.00
2022-11-08T03:33:08.177Z,64.99
2022-11-08T03:35:36.287Z,65.08
2022-11-08T03:38:04.412Z,64.67
2022-11-08T03:40:32.502Z,64.75
2022-11-08T03:43:00.556Z,64.59
2022-11-08T03:45:28.622Z,65.07
2022-11-08T03:47:57.977Z,64.92
2022-11-08T03:50:26.277Z,65.79
2022-11-08T03:52:56.592Z,65.02
2022-11-08T03:55:27.610Z,65.08
2022-11-08T03:57:56.073Z,65.33
2022-11-08T04:00:26.716Z,65.13
2022-11-08T04:02:55.823Z,65.05
2022-11-08T04:05:25.193Z,65.22
2022-11-08T04:07:53.240Z,65.07
2022-11-08T04:10:21.318Z,65.49
2022-11-08T04:13:07.056Z,64.80
2022-11-08T04:15:35.084Z,65.77
2022-11-08T04:18:21.670Z,65.77
2022-11-08T04:21:08.910Z,66.05
2022-11-08T04:23:38.484Z,65.49
2022-11-08T04:26:11.541Z,65.62
2022-11-08T04:28:42.210Z,65.46
2022-11-08T04:31:13.794Z,65.46
2022-11-08T04:33:42.349Z,65.80
2022-11-08T04:36:14.017Z,65.47
2022-11-08T04:38:42.199Z,65.76
2022-11-08T04:41:13.258Z,65.86
2022-11-08T04:43:42.044Z,65.96
2022-11-08T04:46:12.221Z,64.87
2022-11-08T04:48:40.674Z,65.81
2022-11-08T04:51:13.233Z,65.70
2022-11-08T04:53:41.506Z,65.81
2022-11-08T04:56:13.207Z,65.10
2022-11-08T04:58:43.382Z,64.87
2022-11-08T05:01:16.337Z,65.17
2022-11-08T05:03:45.942Z,65.42
2022-11-08T05:06:18.162Z,65.48
2022-11-08T05:08:46.620Z,65.41
2022-11-08T05:11:17.141Z,65.23
2022-11-08T05:13:45.916Z,64.59
2022-11-08T05:16:16.472Z,64.01
2022-11-08T05:18:45.630Z,62.76
2022-11-08T05:21:35.022Z,62.41
2022-11-08T05:24:05.576Z,61.42
2022-11-08T05:26:35.942Z,60.91
2022-11-08T05:29:04.215Z,61.45
2022-11-08T05:31:32.561Z,60.92
2022-11-08T05:34:01.026Z,60.11
2022-11-08T05:36:31.091Z,59.85
2022-11-08T05:38:59.152Z,59.60
2022-11-08T05:41:27.856Z,59.27
2022-11-08T05:43:56.687Z,59.46
2022-11-08T05:46:25.371Z,59.67
2022-11-08T05:48:54.234Z,59.96
2022-11-08T05:51:22.949Z,59.30
2022-11-08T05:53:52.321Z,59.56
2022-11-08T05:56:20.545Z,59.51
2022-11-08T05:58:48.604Z,59.33
2022-11-08T06:01:19.526Z,59.56
2022-11-08T06:03:48.917Z,59.69
2022-11-08T06:06:19.700Z,59.90
2022-11-08T06:08:50.685Z,59.84
2022-11-08T06:11:23.508Z,60.84
2022-11-08T06:13:51.705Z,61.25
2022-11-08T06:16:21.824Z,61.22
2022-11-08T06:18:50.468Z,61.44
2022-11-08T06:21:21.462Z,61.15
2022-11-08T06:23:53.723Z,61.89
2022-11-08T06:26:23.900Z,62.12
2022-11-08T06:28:52.443Z,62.19
2022-11-08T06:31:20.831Z,62.44
2022-11-08T06:33:50.297Z,62.15
2022-11-08T06:36:18.290Z,61.80
2022-11-08T06:38:46.393Z,61.73
2022-11-08T06:41:20.311Z,61.83
2022-11-08T06:43:50.207Z,62.29
2022-11-08T06:46:19.112Z,61.88
2022-11-08T06:48:47.183Z,61.94
2022-11-08T06:51:15.817Z,62.16
2022-11-08T06:53:44.507Z,61.94
2022-11-08T06:56:13.270Z,62.78
2022-11-08T06:58:41.372Z,62.56
2022-11-08T07:01:13.280Z,62.00
2022-11-08T07:03:41.511Z,62.48
2022-11-08T07:06:10.129Z,62.35
2022-11-08T07:08:38.301Z,62.74
2022-11-08T07:11:06.712Z,63.20
2022-11-08T07:13:35.474Z,62.60
2022-11-08T07:16:03.865Z,62.87
2022-11-08T07:18:33.304Z,62.68
2022-11-08T07:21:02.875Z,63.22
2022-11-08T07:23:31.672Z,62.88
2022-11-08T07:26:03.418Z,63.09
2022-11-08T07:28:32.388Z,63.09
2022-11-08T07:31:03.704Z,63.32
2022-11-08T07:33:33.457Z,63.61
2022-11-08T07:36:01.664Z,62.86
2022-11-08T07:38:29.833Z,62.82
2022-11-08T07:40:59.101Z,62.75
2022-11-08T07:43:28.411Z,63.12
2022-11-08T07:46:02.432Z,63.21
2022-11-08T07:48:32.907Z,63.67
2022-11-08T07:51:00.992Z,63.26
2022-11-08T07:53:29.615Z,63.18
2022-11-08T07:55:58.186Z,62.58
2022-11-08T07:58:26.497Z,62.67
2022-11-08T08:00:54.603Z,63.17
2022-11-08T08:03:23.064Z,62.92
2022-11-08T08:06:00.551Z,62.29
2022-11-08T08:08:29.951Z,62.59
2022-11-08T08:11:00.128Z,61.69
2022-11-08T08:13:28.817Z,61.56
2022-11-08T08:16:00.766Z,61.67
2022-11-08T08:18:29.989Z,61.88
2022-11-08T08:20:59.937Z,61.91
2022-11-08T08:23:28.136Z,61.18
2022-11-08T08:25:57.068Z,61.65
2022-11-08T08:28:25.308Z,61.36
2022-11-08T08:30:53.426Z,61.42
2022-11-08T08:33:28.345Z,61.07
2022-11-08T08:36:04.328Z,61.15
2022-11-08T08:38:34.238Z,60.94
2022-11-08T08:41:03.238Z,60.93
2022-11-08T08:43:32.541Z,61.11
2022-11-08T08:48:54.673Z,61.35
2022-11-08T08:51:24.105Z,60.81
2022-11-08T08:53:52.693Z,60.23
2022-11-08T08:56:20.820Z,60.31
2022-11-08T09:04:05.819Z,60.79
2022-11-08T09:06:35.268Z,60.61
2022-11-08T09:09:03.484Z,60.33
2022-11-08T09:11:31.603Z,60.29
2022-11-08T09:13:59.679Z,60.51
2022-11-08T09:16:27.763Z,60.32
2022-11-08T09:18:55.887Z,60.17
2022-11-08T09:21:23.968Z,59.72
2022-11-08T09:23:53.495Z,59.56
2022-11-08T09:26:21.608Z,59.40
2022-11-08T09:28:49.640Z,59.74
2022-11-08T09:31:17.849Z,59.46
2022-11-08T09:33:45.973Z,59.27
2022-11-08T09:36:15.095Z,59.40
2022-11-08T09:38:43.146Z,59.54
2022-11-08T09:41:57.690Z,59.03
2022-11-08T09:44:56.212Z,59.48
2022-11-08T09:47:27.563Z,59.61
2022-11-08T09:50:05.074Z,59.07
2022-11-08T09:52:36.275Z,59.12
2022-11-08T09:55:19.330Z,58.78
2022-11-08T09:58:11.725Z,59.20
2022-11-08T10:00:41.604Z,59.33
2022-11-08T10:03:16.217Z,59.10
2022-11-08T10:05:54.745Z,59.36
2022-11-08T10:08:30.009Z,59.32
2022-11-08T10:11:33.449Z,59.52
2022-11-08T10:14:22.281Z,59.54
2022-11-08T10:16:58.834Z,59.44
2022-11-08T10:20:03.703Z,59.34
2022-11-08T10:22:49.161Z,59.82
2022-11-08T10:25:24.240Z,60.18
2022-11-08T10:28:07.250Z,60.72
2022-11-08T10:30:41.065Z,60.59
2022-11-08T10:33:20.581Z,59.52
2022-11-08T10:36:01.598Z,58.43
2022-11-08T10:38:37.990Z,58.40
2022-11-08T10:41:16.868Z,58.54
2022-11-08T10:43:53.496Z,57.67
2022-11-08T10:46:39.579Z,57.51
2022-11-08T10:49:16.750Z,57.05
2022-11-08T10:51:46.117Z,56.88
2022-11-08T10:54:43.921Z,56.28
2022-11-08T10:57:14.898Z,56.81
2022-11-08T10:59:44.570Z,57.16
2022-11-08T11:02:23.586Z,57.07
2022-11-08T11:04:52.406Z,57.63
2022-11-08T11:07:33.764Z,57.37
2022-11-08T11:10:24.437Z,56.06
2022-11-08T11:13:01.115Z,56.60
2022-11-08T11:15:34.778Z,55.85
2022-11-08T11:18:05.343Z,55.64
2022-11-08T11:20:34.086Z,55.81
2022-11-08T11:23:02.430Z,55.06
2022-11-08T11:25:30.486Z,54.58
2022-11-08T11:28:00.836Z,53.26
2022-11-08T11:30:32.847Z,52.87
2022-11-08T11:33:22.458Z,52.72
2022-11-08T11:35:57.732Z,51.16
2022-11-08T11:38:41.002Z,50.75
2022-11-08T11:41:17.732Z,50.92
2022-11-08T11:43:55.913Z,51.46
2022-11-08T11:46:31.063Z,52.08
2022-11-08T11:49:05.458Z,52.62
2022-11-08T11:51:33.603Z,51.93
2022-11-08T11:54:06.128Z,51.34
2022-11-08T11:56:45.754Z,49.66
2022-11-08T11:59:59.385Z,50.29
2022-11-08T12:02:58.887Z,50.67
2022-11-08T12:05:46.856Z,49.82
2022-11-08T12:08:24.762Z,48.58
2022-11-08T12:11:10.390Z,49.35
2022-11-08T12:14:00.441Z,49.35
2022-11-08T12:16:37.012Z,48.99
2022-11-08T12:19:25.764Z,49.80
2022-11-08T12:22:06.686Z,50.09
2022-11-08T12:24:51.162Z,50.39
2022-11-08T12:27:31.089Z,50.40
2022-11-08T12:30:05.196Z,50.98
2022-11-08T12:33:08.803Z,50.57
2022-11-08T12:35:49.456Z,51.21
2022-11-08T12:38:28.225Z,51.14
2022-11-08T12:41:06.985Z,50.72
2022-11-08T12:43:52.688Z,50.96
2022-11-08T12:46:22.333Z,51.21
2022-11-08T12:49:26.948Z,51.39
2022-11-08T12:52:12.601Z,51.69
2022-11-08T12:54:45.216Z,51.76
2022-11-08T12:57:17.338Z,52.24
2022-11-08T12:59:49.877Z,52.66
2022-11-08T13:02:22.840Z,52.46
2022-11-08T13:05:01.489Z,52.54
2022-11-08T13:07:41.289Z,52.75
2022-11-08T13:10:23.042Z,52.06
2022-11-08T13:13:08.787Z,52.25
2022-11-08T13:15:37.376Z,52.22
2022-11-08T13:18:34.008Z,52.49
2022-11-08T13:21:22.529Z,53.01
2022-11-08T13:23:50.682Z,52.56
2022-11-08T13:26:26.042Z,52.36
2022-11-08T13:28:54.805Z,52.46
2022-11-08T13:31:42.967Z,52.14
2022-11-08T13:34:45.702Z,52.36
2022-11-08T13:37:43.824Z,52.80
2022-11-08T13:40:42.651Z,52.95
2022-11-08T13:43:28.516Z,53.02
2022-11-08T13:46:17.443Z,53.17
2022-11-08T13:49:06.491Z,52.36
2022-11-08T13:51:36.584Z,52.21
2022-11-08T13:54:47.771Z,50.47
2022-11-08T13:57:20.673Z,50.96
2022-11-08T13:59:59.922Z,50.81
2022-11-08T14:02:45.642Z,50.45
2022-11-08T14:05:41.478Z,50.42
2022-11-08T14:08:26.046Z,50.29
2022-11-08T14:11:27.843Z,51.01
2022-11-08T14:14:44.435Z,50.76
2022-11-08T14:17:40.757Z,50.72
2022-11-08T14:20:40.707Z,50.84
2022-11-08T14:23:23.910Z,50.79
2022-11-08T14:25:55.380Z,51.40
2022-11-08T14:28:26.851Z,62.75
2022-11-08T14:30:55.833Z,53.50
2022-11-08T14:33:28.345Z,51.38
2022-11-08T14:36:03.128Z,51.35
2022-11-08T14:38:34.424Z,51.78
2022-11-08T14:41:06.004Z,51.02
2022-11-08T14:43:43.405Z,51.63
2022-11-08T14:46:13.080Z,51.11
2022-11-08T14:48:50.971Z,51.42
2022-11-08T14:51:19.133Z,51.78
2022-11-08T14:53:50.467Z,51.47
2022-11-08T14:56:21.452Z,51.71
2022-11-08T14:58:52.134Z,51.42
2022-11-08T15:01:24.730Z,51.23
2022-11-08T15:03:59.509Z,51.47
2022-11-08T15:06:33.996Z,51.44
2022-11-08T15:09:07.078Z,51.49
2022-11-08T15:11:39.288Z,51.39
2022-11-08T15:14:10.496Z,51.39
2022-11-08T15:16:45.041Z,51.79
2022-11-08T15:19:33.365Z,52.00
2022-11-08T15:22:04.370Z,52.91
2022-11-08T15:24:38.574Z,52.47
2022-11-08T15:27:16.113Z,52.88
2022-11-08T15:29:54.912Z,52.34
2022-11-08T15:32:24.046Z,52.65
2022-11-08T15:34:56.931Z,52.31
2022-11-08T15:37:33.109Z,53.28
2022-11-08T15:40:03.565Z,53.26
2022-11-08T15:42:33.856Z,53.04
2022-11-08T15:45:05.869Z,52.88
2022-11-08T15:47:46.330Z,52.85
2022-11-08T15:50:18.977Z,53.41
2022-11-08T15:52:49.443Z,53.40
2022-11-08T15:55:20.046Z,53.69
2022-11-08T15:57:50.221Z,54.18
2022-11-08T16:00:24.105Z,54.62
2022-11-08T16:02:53.278Z,54.98
2022-11-08T16:05:25.036Z,55.05
2022-11-08T16:07:54.254Z,55.44
2022-11-08T16:10:30.903Z,55.73
2022-11-08T16:13:01.038Z,55.54
2022-11-08T16:15:33.106Z,56.28
2022-11-08T16:18:01.275Z,56.04
2022-11-08T16:20:33.452Z,55.85
2022-11-08T16:23:04.917Z,55.28
2022-11-08T16:25:37.838Z,55.36
2022-11-08T16:28:12.485Z,55.47
2022-11-08T16:30:46.126Z,55.75
2022-11-08T16:33:21.699Z,55.92
2022-11-08T16:35:52.074Z,55.60
2022-11-08T16:38:25.509Z,55.19
2022-11-08T16:40:53.667Z,55.27
2022-11-08T16:43:21.731Z,55.38
2022-11-08T16:46:06.700Z,55.23
2022-11-08T16:48:36.923Z,55.19
2022-11-08T16:51:13.839Z,54.91
2022-11-08T16:53:41.850Z,55.29
2022-11-08T16:56:10.068Z,55.27
2022-11-08T16:58:38.321Z,55.08
2022-11-08T17:01:10.575Z,54.91
2022-11-08T17:03:39.090Z,55.02
2022-11-08T17:06:13.359Z,55.23
2022-11-08T17:08:41.623Z,55.26
2022-11-08T17:11:11.430Z,55.47
2022-11-08T17:13:40.742Z,55.77
2022-11-08T17:16:12.020Z,55.93
2022-11-08T17:18:41.067Z,56.23
2022-11-08T17:24:01.585Z,56.40
2022-11-08T17:26:29.601Z,56.27
2022-11-08T17:28:57.641Z,55.73
2022-11-08T17:31:25.741Z,55.45
2022-11-08T17:33:55.830Z,55.69
2022-11-08T17:36:25.428Z,55.47
2022-11-08T17:38:53.518Z,55.11
2022-11-08T17:41:21.894Z,55.07
2022-11-08T17:43:50.712Z,55.19
2022-11-08T17:46:18.868Z,55.19
2022-11-08T17:48:47.037Z,55.15
2022-11-08T17:51:15.719Z,55.08
2022-11-08T17:53:45.277Z,55.24
2022-11-08T17:56:13.690Z,55.15
2022-11-08T17:58:42.352Z,55.06
2022-11-08T18:01:10.863Z,55.00
2022-11-08T18:03:39.016Z,55.12
2022-11-08T18:06:11.300Z,55.02
2022-11-08T18:08:39.712Z,55.16
2022-11-08T18:11:09.904Z,55.07
2022-11-08T18:13:38.076Z,55.17
2022-11-08T18:16:11.596Z,55.14
2022-11-08T18:18:40.190Z,55.62
2022-11-08T18:21:09.121Z,55.64
2022-11-08T18:23:37.735Z,55.67
2022-11-08T18:26:06.181Z,55.58
2022-11-08T18:28:37.480Z,55.56
2022-11-08T18:31:07.952Z,55.43
2022-11-08T18:33:38.156Z,55.45
2022-11-08T18:36:08.067Z,55.43
2022-11-08T18:38:38.957Z,55.37
2022-11-08T18:41:08.103Z,55.21
2022-11-08T18:43:37.674Z,55.51
2022-11-08T18:46:08.850Z,55.80
2022-11-08T18:48:36.975Z,55.59
2022-11-08T18:51:06.623Z,55.71
2022-11-08T18:53:35.447Z,56.04
2022-11-08T18:56:09.092Z,56.09
2022-11-08T18:58:38.765Z,56.29
2022-11-08T19:01:07.639Z,56.27
2022-11-08T19:03:35.750Z,56.32
2022-11-08T19:06:04.187Z,55.98
2022-11-08T19:08:32.894Z,56.14
2022-11-08T19:11:03.426Z,55.96
2022-11-08T19:13:34.865Z,56.18
2022-11-08T19:16:07.594Z,55.96
2022-11-08T19:18:37.624Z,55.94
2022-11-08T19:21:08.867Z,56.21
2022-11-08T19:23:38.996Z,56.08
2022-11-08T19:26:10.887Z,55.98
2022-11-08T19:28:42.196Z,56.05
2022-11-08T19:31:12.261Z,56.05
2022-11-08T19:33:40.357Z,55.80
2022-11-08T19:36:12.583Z,55.58
2022-11-08T19:38:41.737Z,55.91
2022-11-08T19:41:12.918Z,55.62
2022-11-08T19:43:43.357Z,55.71
2022-11-08T19:46:15.914Z,56.00
2022-11-08T19:48:46.005Z,56.12
2022-11-08T19:51:16.531Z,55.60
2022-11-08T19:53:45.466Z,56.10
2022-11-08T19:56:17.486Z,55.98
2022-11-08T19:58:46.347Z,56.14
2022-11-08T20:01:18.985Z,56.19
2022-11-08T20:03:48.294Z,56.72
2022-11-08T20:06:18.307Z,56.40
2022-11-08T20:08:49.512Z,56.87
2022-11-08T20:11:21.379Z,56.64
2022-11-08T20:13:50.101Z,56.97
2022-11-08T20:16:23.054Z,56.90
2022-11-08T20:18:51.498Z,56.47
2022-11-08T20:21:20.055Z,56.09
2022-11-08T20:23:48.940Z,56.71
2022-11-08T20:26:20.984Z,56.19
2022-11-08T20:28:56.171Z,56.29
2022-11-08T20:31:26.254Z,56.05
2022-11-08T20:33:55.040Z,56.15
2022-11-08T20:36:24.979Z,56.20
2022-11-08T20:38:58.300Z,56.19
2022-11-08T20:41:29.932Z,56.29
2022-11-08T20:43:58.186Z,56.50
2022-11-08T20:46:27.796Z,56.35
2022-11-08T20:49:00.251Z,56.40
2022-11-08T20:51:29.945Z,55.63
2022-11-08T20:53:59.214Z,56.42
2022-11-08T20:56:28.894Z,55.85
2022-11-08T20:58:57.545Z,56.04
2022-11-08T21:01:29.868Z,56.54
2022-11-08T21:03:58.176Z,56.46
2022-11-08T21:06:29.318Z,56.38
2022-11-08T21:09:01.510Z,56.46
2022-11-08T21:11:34.480Z,56.74
2022-11-08T21:14:02.751Z,56.42
2022-11-08T21:16:46.956Z,56.00
2022-11-08T21:19:21.331Z,56.79
2022-11-08T21:21:49.440Z,56.65
2022-11-08T21:24:17.933Z,56.42
2022-11-08T21:26:45.983Z,56.38
2022-11-08T21:29:14.045Z,56.51
2022-11-08T21:31:43.447Z,56.45
2022-11-08T21:34:11.556Z,56.53
2022-11-08T21:36:39.619Z,56.30
2022-11-08T21:39:07.616Z,56.31
2022-11-08T21:41:35.689Z,56.30
2022-11-08T21:44:03.709Z,56.25
2022-11-08T21:46:32.188Z,56.45
2022-11-08T21:49:03.384Z,56.08
2022-11-08T21:51:31.557Z,56.21
2022-11-08T21:54:00.496Z,56.54
2022-11-08T21:56:31.882Z,56.49
2022-11-08T21:59:00.332Z,56.75
2022-11-08T22:01:31.474Z,56.83
2022-11-08T22:04:01.528Z,56.64
2022-11-08T22:06:30.062Z,56.66
2022-11-08T22:08:58.144Z,56.93
2022-11-08T22:11:26.208Z,56.92
2022-11-08T22:13:54.267Z,57.38
2022-11-08T22:16:22.339Z,56.89
2022-11-08T22:19:04.330Z,56.89
2022-11-08T22:21:42.813Z,56.67
2022-11-08T22:24:13.366Z,56.56
2022-11-08T22:26:42.471Z,56.43
2022-11-08T22:29:11.177Z,56.51
2022-11-08T22:31:39.826Z,56.53
2022-11-08T22:34:09.656Z,57.07
2022-11-08T22:36:44.855Z,57.13
2022-11-08T22:39:15.035Z,56.90
2022-11-08T22:41:44.142Z,57.13
2022-11-08T22:44:13.277Z,56.86
2022-11-08T22:46:42.168Z,56.83
2022-11-08T22:49:10.848Z,57.30
2022-11-08T22:51:41.662Z,56.99
2022-11-08T22:54:10.036Z,57.04
2022-11-08T22:56:38.299Z,56.88
2022-11-08T22:59:06.315Z,57.01
2022-11-08T23:01:34.834Z,56.59
2022-11-08T23:04:02.851Z,57.04
2022-11-08T23:06:30.979Z,57.06
2022-11-08T23:09:00.563Z,56.64
2022-11-08T23:11:46.130Z,56.93
2022-11-08T23:14:36.707Z,57.21
2022-11-08T23:17:07.581Z,57.51
2022-11-08T23:19:53.676Z,56.73
2022-11-08T23:22:40.250Z,57.18
2022-11-08T23:25:09.979Z,57.38
2022-11-08T23:27:55.939Z,57.03
2022-11-08T23:30:41.906Z,57.20
2022-11-08T23:33:10.216Z,57.50
2022-11-08T23:35:58.454Z,57.30
2022-11-08T23:38:26.510Z,57.54
2022-11-08T23:41:21.747Z,57.37
2022-11-08T23:44:07.787Z,57.28
2022-11-08T23:46:35.908Z,57.26
2022-11-08T23:49:04.577Z,57.26
2022-11-08T23:51:32.968Z,57.06
2022-11-08T23:54:04.552Z,57.38
2022-11-08T23:56:34.200Z,57.13
2022-11-08T23:59:05.338Z,57.38
